createdAt,value
2023-04-21T00:01:00.162Z,99793.47
2023-04-21T00:03:28.085Z,99781.22
2023-04-21T00:05:58.720Z,99782.25
2023-04-21T00:08:26.894Z,99774.34
2023-04-21T00:10:53.506Z,99771.72
2023-04-21T00:13:20.130Z,99770.03
2023-04-21T00:15:46.647Z,99769.25
2023-04-21T00:18:13.477Z,99758.72
2023-04-21T00:20:39.952Z,99765.75
2023-04-21T00:23:06.574Z,99755.34
2023-04-21T00:25:33.163Z,99753.63
2023-04-21T00:27:59.739Z,99747.53
2023-04-21T00:30:26.340Z,99744.13
2023-04-21T00:32:52.962Z,99742.44
2023-04-21T00:35:19.625Z,99740.84
2023-04-21T00:37:46.031Z,99741.69
2023-04-21T00:40:13.511Z,99740.91
2023-04-21T00:42:40.101Z,99733.09
2023-04-21T00:45:07.164Z,99736.69
2023-04-21T00:47:33.905Z,99736.69
2023-04-21T00:50:00.707Z,99745.53
2023-04-21T00:52:28.146Z,99743.00
2023-04-21T00:54:55.577Z,99744.78
2023-04-21T00:57:22.934Z,99743.94
2023-04-21T00:59:50.112Z,99744.03
2023-04-21T01:02:17.481Z,99737.06
2023-04-21T01:04:45.717Z,99744.13
2023-04-21T01:07:12.793Z,99724.00
2023-04-21T01:09:39.633Z,99733.66
2023-04-21T01:12:11.388Z,99733.75
2023-04-21T01:14:40.505Z,99731.13
2023-04-21T01:17:08.290Z,99731.22
2023-04-21T01:19:41.875Z,99731.44
2023-04-21T01:22:11.210Z,99721.72
2023-04-21T01:24:48.552Z,99736.88
2023-04-21T01:27:21.414Z,99725.38
2023-04-21T01:29:50.663Z,99729.69
2023-04-21T01:32:36.977Z,99735.09
2023-04-21T01:35:03.908Z,99732.47
2023-04-21T01:37:32.657Z,99739.50
2023-04-21T01:40:01.376Z,99729.91
2023-04-21T01:42:29.543Z,99716.75
2023-04-21T01:44:56.994Z,99711.47
2023-04-21T01:47:24.490Z,99721.16
2023-04-21T01:49:51.269Z,99727.38
2023-04-21T01:52:17.977Z,99723.78
2023-04-21T01:54:44.593Z,99722.94
2023-04-21T01:57:11.245Z,99729.16
2023-04-21T01:59:37.943Z,99736.22
2023-04-21T02:02:05.030Z,99730.09
2023-04-21T02:04:31.765Z,99732.81
2023-04-21T02:06:58.467Z,99733.69
2023-04-21T02:09:25.082Z,99725.84
2023-04-21T02:11:51.891Z,99726.81
2023-04-21T02:14:18.446Z,99725.94
2023-04-21T02:16:44.965Z,99729.53
2023-04-21T02:19:11.851Z,99738.38
2023-04-21T02:21:38.390Z,99736.66
2023-04-21T02:24:05.165Z,99736.66
2023-04-21T02:26:31.743Z,99726.22
2023-04-21T02:28:58.323Z,99734.97
2023-04-21T02:31:24.964Z,99736.88
2023-04-21T02:33:51.755Z,99732.50
2023-04-21T02:36:18.289Z,99731.78
2023-04-21T02:38:44.725Z,99729.22
2023-04-21T02:41:11.353Z,99724.03
2023-04-21T02:43:37.874Z,99726.69
2023-04-21T02:46:08.300Z,99729.41
2023-04-21T02:48:36.286Z,99727.53
2023-04-21T02:51:04.346Z,99731.00
2023-04-21T02:53:31.374Z,99735.34
2023-04-21T02:55:58.022Z,99737.91
2023-04-21T02:58:24.704Z,99738.72
2023-04-21T03:00:51.587Z,99733.47
2023-04-21T03:03:18.537Z,99735.16
2023-04-21T03:05:45.626Z,99732.50
2023-04-21T03:08:12.098Z,99733.38
2023-04-21T03:10:38.749Z,99740.34
2023-04-21T03:13:05.412Z,99742.13
2023-04-21T03:15:31.995Z,99747.41
2023-04-21T03:17:58.523Z,99755.31
2023-04-21T03:20:25.054Z,99752.75
2023-04-21T03:22:54.078Z,99746.63
2023-04-21T03:25:20.581Z,99747.50
2023-04-21T03:27:47.073Z,99754.53
2023-04-21T03:30:13.511Z,99754.53
2023-04-21T03:32:40.039Z,99752.00
2023-04-21T03:35:06.607Z,99752.69
2023-04-21T03:37:33.034Z,99754.44
2023-04-21T03:39:59.491Z,99754.38
2023-04-21T03:42:26.179Z,99763.09
2023-04-21T03:44:52.680Z,99752.56
2023-04-21T03:47:19.097Z,99757.00
2023-04-21T03:49:45.613Z,99759.63
2023-04-21T03:52:12.041Z,99760.59
2023-04-21T03:54:38.428Z,99752.75
2023-04-21T03:57:05.103Z,99753.72
2023-04-21T03:59:31.526Z,99747.66
2023-04-21T04:01:57.919Z,99751.25
2023-04-21T04:04:24.488Z,99748.63
2023-04-21T04:06:50.983Z,99752.38
2023-04-21T04:09:17.384Z,99748.88
2023-04-21T04:11:43.761Z,99753.41
2023-04-21T04:14:10.198Z,99750.09
2023-04-21T04:16:36.809Z,99747.44
2023-04-21T04:19:03.651Z,99747.56
2023-04-21T04:21:31.190Z,99745.03
2023-04-21T04:23:57.543Z,99745.03
2023-04-21T04:26:25.117Z,99745.94
2023-04-21T04:28:56.163Z,99745.09
2023-04-21T04:31:25.389Z,99744.16
2023-04-21T04:33:55.009Z,99752.06
2023-04-21T04:36:22.389Z,99746.06
2023-04-21T04:38:48.753Z,99740.78
2023-04-21T04:41:16.545Z,99746.88
2023-04-21T04:43:43.890Z,99749.50
2023-04-21T04:46:11.195Z,99756.47
2023-04-21T04:48:37.616Z,99753.00
2023-04-21T04:51:04.419Z,99751.19
2023-04-21T04:53:31.153Z,99753.84
2023-04-21T04:55:59.181Z,99753.00
2023-04-21T04:58:25.914Z,99749.44
2023-04-21T05:00:52.248Z,99750.38
2023-04-21T05:03:18.913Z,99753.75
2023-04-21T05:05:46.163Z,99757.97
2023-04-21T05:08:12.581Z,99756.13
2023-04-21T05:10:38.892Z,99753.41
2023-04-21T05:13:05.276Z,99760.19
2023-04-21T05:15:31.614Z,99763.56
2023-04-21T05:17:58.084Z,99761.69
2023-04-21T05:20:24.516Z,99762.34
2023-04-21T05:22:50.945Z,99766.59
2023-04-21T05:25:17.372Z,99768.19
2023-04-21T05:27:43.802Z,99772.25
2023-04-21T05:30:10.933Z,99766.03
2023-04-21T05:32:37.390Z,99769.34
2023-04-21T05:35:04.075Z,99771.78
2023-04-21T05:37:30.522Z,99772.34
2023-04-21T05:39:56.930Z,99771.34
2023-04-21T05:42:23.401Z,99773.69
2023-04-21T05:44:49.799Z,99773.50
2023-04-21T05:47:16.259Z,99777.56
2023-04-21T05:49:49.803Z,99781.72
2023-04-21T05:52:17.519Z,99781.41
2023-04-21T05:54:44.293Z,99776.81
2023-04-21T05:57:10.804Z,99779.06
2023-04-21T05:59:37.306Z,99776.97
2023-04-21T06:02:04.088Z,99772.34
2023-04-21T06:04:31.035Z,99776.59
2023-04-21T06:06:57.632Z,99785.81
2023-04-21T06:09:24.065Z,99777.72
2023-04-21T06:11:50.794Z,99775.81
2023-04-21T06:14:17.472Z,99776.53
2023-04-21T06:16:44.232Z,99776.22
2023-04-21T06:19:10.741Z,99774.16
2023-04-21T06:21:37.165Z,99775.53
2023-04-21T06:24:03.804Z,99769.78
2023-04-21T06:26:30.464Z,99775.41
2023-04-21T06:28:56.912Z,99781.78
2023-04-21T06:31:23.448Z,99774.22
2023-04-21T06:33:49.893Z,99765.78
2023-04-21T06:36:17.984Z,99760.13
2023-04-21T06:38:44.779Z,99762.34
2023-04-21T06:41:11.220Z,99769.75
2023-04-21T06:43:37.800Z,99763.41
2023-04-21T06:46:04.315Z,99756.88
2023-04-21T06:48:31.036Z,99761.00
2023-04-21T06:50:57.497Z,99756.34
2023-04-21T06:53:24.327Z,99752.69
2023-04-21T06:55:50.843Z,99750.66
2023-04-21T06:58:17.977Z,99750.34
2023-04-21T07:00:46.310Z,99753.53
2023-04-21T07:03:12.911Z,99747.19
2023-04-21T07:05:39.476Z,99746.84
2023-04-21T07:08:05.884Z,99750.97
2023-04-21T07:10:32.394Z,99749.72
2023-04-21T07:12:58.846Z,99748.47
2023-04-21T07:15:25.242Z,99755.06
2023-04-21T07:17:52.052Z,99754.50
2023-04-21T07:20:18.845Z,99748.78
2023-04-21T07:22:45.422Z,99751.84
2023-04-21T07:25:12.585Z,99746.84
2023-04-21T07:27:39.613Z,99745.59
2023-04-21T07:30:07.063Z,99739.84
2023-04-21T07:32:33.913Z,99736.78
2023-04-21T07:35:01.949Z,99746.06
2023-04-21T07:37:31.582Z,99750.19
2023-04-21T07:39:57.974Z,99740.13
2023-04-21T07:42:27.424Z,99746.66
2023-04-21T07:44:55.924Z,99741.88
2023-04-21T07:47:22.384Z,99739.63
2023-04-21T07:49:54.078Z,99731.31
2023-04-21T07:52:20.516Z,99732.34
2023-04-21T07:54:47.038Z,99740.44
2023-04-21T07:57:13.686Z,99738.06
2023-04-21T07:59:40.163Z,99741.84
2023-04-21T08:02:06.719Z,99735.03
2023-04-21T08:04:33.270Z,99729.06
2023-04-21T08:07:00.345Z,99721.34
2023-04-21T08:09:27.431Z,99732.22
2023-04-21T08:11:54.936Z,99732.25
2023-04-21T08:14:21.765Z,99731.53
2023-04-21T08:16:48.461Z,99729.88
2023-04-21T08:19:14.985Z,99723.72
2023-04-21T08:21:41.548Z,99726.59
2023-04-21T08:24:08.124Z,99723.25
2023-04-21T08:26:35.347Z,99724.19
2023-04-21T08:29:04.040Z,99721.66
2023-04-21T08:31:31.097Z,99729.88
2023-04-21T08:34:02.049Z,99732.88
2023-04-21T08:36:30.403Z,99726.47
2023-04-21T08:38:57.979Z,99730.81
2023-04-21T08:41:25.984Z,99733.34
2023-04-21T08:43:52.471Z,99723.44
2023-04-21T08:46:19.593Z,99725.00
2023-04-21T08:48:46.921Z,99733.81
2023-04-21T08:51:20.983Z,99733.56
2023-04-21T08:53:47.407Z,99734.03
2023-04-21T08:56:13.805Z,99730.16
2023-04-21T08:58:41.512Z,99727.84
2023-04-21T09:01:08.028Z,99728.19
2023-04-21T09:03:34.741Z,99734.69
2023-04-21T09:06:05.504Z,99726.78
2023-04-21T09:08:32.963Z,99728.53
2023-04-21T09:11:01.345Z,99729.47
2023-04-21T09:13:33.246Z,99738.63
2023-04-21T09:16:01.074Z,99728.66
2023-04-21T09:18:40.474Z,99736.69
2023-04-21T09:21:32.424Z,99734.69
2023-04-21T09:24:06.514Z,99733.50
2023-04-21T09:26:35.123Z,99734.13
2023-04-21T09:29:06.934Z,99728.00
2023-04-21T09:31:35.751Z,99731.56
2023-04-21T09:34:02.643Z,99731.72
2023-04-21T09:36:31.765Z,99727.53
2023-04-21T09:41:32.487Z,99720.72
2023-04-21T09:44:04.868Z,99720.06
2023-04-21T09:46:45.013Z,99722.03
2023-04-21T09:49:14.073Z,99716.44
2023-04-21T09:52:14.317Z,99722.19
2023-04-21T09:54:34.459Z,99722.75
2023-04-21T09:57:03.924Z,99715.06
2023-04-21T09:59:37.056Z,99711.69
2023-04-21T10:02:08.083Z,99712.50
2023-04-21T10:04:37.020Z,99702.41
2023-04-21T10:07:04.185Z,99702.66
2023-04-21T10:09:40.512Z,99684.53
2023-04-21T10:12:10.384Z,99678.19
2023-04-21T10:14:37.125Z,99680.38
2023-04-21T10:17:11.152Z,99679.75
2023-04-21T10:19:47.629Z,99681.66
2023-04-21T10:22:14.175Z,99673.97
2023-04-21T10:24:42.412Z,99677.94
2023-04-21T10:27:13.120Z,99677.25
2023-04-21T10:29:52.306Z,99674.03
2023-04-21T10:32:42.472Z,99664.63
2023-04-21T10:35:17.796Z,99664.81
2023-04-21T10:37:48.722Z,99657.47
2023-04-21T10:40:43.093Z,99657.44
2023-04-21T10:43:43.440Z,99642.16
2023-04-21T10:46:35.567Z,99651.94
2023-04-21T10:49:09.259Z,99638.59
2023-04-21T10:51:57.840Z,99639.16
2023-04-21T10:54:28.237Z,99635.22
2023-04-21T10:56:56.263Z,99639.28
2023-04-21T10:59:23.996Z,99632.59
2023-04-21T11:01:50.754Z,99627.06
2023-04-21T11:04:22.227Z,99628.50
2023-04-21T11:07:19.542Z,99616.28
2023-04-21T11:09:48.412Z,99615.31
2023-04-21T11:12:18.188Z,99606.31
2023-04-21T11:14:48.203Z,99604.13
2023-04-21T11:17:19.517Z,99601.75
2023-04-21T11:19:56.665Z,99602.09
2023-04-21T11:22:25.436Z,99598.84
2023-04-21T11:24:54.745Z,99602.94
2023-04-21T11:27:24.885Z,99593.72
2023-04-21T11:29:51.678Z,99586.81
2023-04-21T11:32:18.740Z,99580.75
2023-04-21T11:34:45.772Z,99573.44
2023-04-21T11:37:23.856Z,99580.56
2023-04-21T11:39:50.490Z,99583.75
2023-04-21T11:42:22.888Z,99567.00
2023-04-21T11:44:49.371Z,99556.69
2023-04-21T11:47:18.623Z,99562.38
2023-04-21T11:49:57.293Z,99556.56
2023-04-21T11:52:36.019Z,99550.22
2023-04-21T11:55:15.295Z,99549.28
2023-04-21T11:57:42.286Z,99551.00
2023-04-21T12:00:11.998Z,99534.75
2023-04-21T12:02:39.187Z,99542.56
2023-04-21T12:05:08.339Z,99534.16
2023-04-21T12:07:37.553Z,99532.22
2023-04-21T12:10:18.628Z,99528.31
2023-04-21T12:12:46.187Z,99529.13
2023-04-21T12:15:20.441Z,99513.47
2023-04-21T12:17:48.967Z,99503.69
2023-04-21T12:20:17.407Z,99504.00
2023-04-21T12:22:44.376Z,99503.03
2023-04-21T12:25:11.213Z,99498.47
2023-04-21T12:27:37.825Z,99492.00
2023-04-21T12:30:04.809Z,99490.97
2023-04-21T12:32:31.528Z,99487.59
2023-04-21T12:34:58.053Z,99488.88
2023-04-21T12:37:24.584Z,99485.31
2023-04-21T12:39:51.164Z,99488.38
2023-04-21T12:42:17.652Z,99482.06
2023-04-21T12:44:44.329Z,99476.56
2023-04-21T12:47:10.788Z,99484.38
2023-04-21T12:49:38.062Z,99490.75
2023-04-21T12:52:06.096Z,99485.13
2023-04-21T12:54:33.020Z,99476.78
2023-04-21T12:56:59.662Z,99468.53
2023-04-21T12:59:26.501Z,99470.69
2023-04-21T13:01:53.192Z,99469.50
2023-04-21T13:04:19.962Z,99462.78
2023-04-21T13:06:46.778Z,99458.66
2023-04-21T13:09:13.312Z,99438.06
2023-04-21T13:11:39.977Z,99460.72
2023-04-21T13:14:07.504Z,99458.84
2023-04-21T13:16:34.103Z,99454.28
2023-04-21T13:19:00.770Z,99446.44
2023-04-21T13:21:27.840Z,99444.78
2023-04-21T13:23:54.521Z,99438.72
2023-04-21T13:26:21.097Z,99441.53
2023-04-21T13:28:47.963Z,99421.25
2023-04-21T13:31:14.513Z,99427.53
2023-04-21T13:33:52.194Z,99432.31
2023-04-21T13:36:20.097Z,99421.91
2023-04-21T13:38:56.385Z,99409.00
2023-04-21T13:41:23.052Z,99395.59
2023-04-21T13:43:50.234Z,99406.19
2023-04-21T13:46:16.852Z,99399.34
2023-04-21T13:48:45.221Z,99407.69
2023-04-21T13:51:11.705Z,99395.50
2023-04-21T13:53:38.229Z,99391.97
2023-04-21T13:56:05.000Z,99391.50
2023-04-21T13:58:31.635Z,99387.06
2023-04-21T14:00:58.723Z,99390.25
2023-04-21T14:03:25.414Z,99378.69
2023-04-21T14:05:52.267Z,99386.09
2023-04-21T14:08:18.837Z,99375.28
2023-04-21T14:10:45.483Z,99371.34
2023-04-21T14:13:23.085Z,99353.34
2023-04-21T14:15:53.919Z,99360.25
2023-04-21T14:18:20.628Z,99356.09
2023-04-21T14:20:47.366Z,99351.72
2023-04-21T14:23:13.878Z,99350.47
2023-04-21T14:25:40.520Z,99342.97
2023-04-21T14:28:08.407Z,99346.41
2023-04-21T14:30:38.613Z,99339.47
2023-04-21T14:33:05.654Z,99332.91
2023-04-21T14:35:32.352Z,99339.34
2023-04-21T14:37:59.260Z,99339.56
2023-04-21T14:40:25.932Z,99340.41
2023-04-21T14:42:52.572Z,99335.81
2023-04-21T14:45:19.093Z,99322.41
2023-04-21T14:47:45.864Z,99319.78
2023-04-21T14:50:12.534Z,99316.91
2023-04-21T14:52:39.801Z,99320.47
2023-04-21T14:55:06.761Z,99309.50
2023-04-21T14:57:33.323Z,99316.53
2023-04-21T15:00:00.317Z,99311.66
2023-04-21T15:02:27.037Z,99311.06
2023-04-21T15:04:53.883Z,99305.59
2023-04-21T15:07:24.337Z,99300.22
2023-04-21T15:09:51.988Z,99299.03
2023-04-21T15:12:18.701Z,99302.66
2023-04-21T15:14:45.407Z,99300.16
2023-04-21T15:17:11.945Z,99288.84
2023-04-21T15:19:38.347Z,99291.63
2023-04-21T15:22:05.058Z,99295.63
2023-04-21T15:24:31.760Z,99289.50
2023-04-21T15:26:58.364Z,99272.25
2023-04-21T15:29:24.860Z,99274.41
2023-04-21T15:31:51.359Z,99269.41
2023-04-21T15:34:17.968Z,99273.22
2023-04-21T15:36:44.564Z,99278.03
2023-04-21T15:39:14.007Z,99276.31
2023-04-21T15:41:40.944Z,99280.16
2023-04-21T15:44:07.708Z,99272.94
2023-04-21T15:46:37.175Z,99269.41
2023-04-21T15:49:03.836Z,99273.31
2023-04-21T15:51:34.556Z,99277.56
2023-04-21T15:54:01.102Z,99267.38
2023-04-21T15:56:27.601Z,99271.22
2023-04-21T15:58:54.049Z,99264.56
2023-04-21T16:01:22.296Z,99264.94
2023-04-21T16:03:49.733Z,99266.59
2023-04-21T16:06:16.741Z,99261.03
2023-04-21T16:08:43.645Z,99259.47
2023-04-21T16:11:10.371Z,99260.16
2023-04-21T16:13:36.908Z,99256.38
2023-04-21T16:16:03.621Z,99256.28
2023-04-21T16:18:30.287Z,99252.47
2023-04-21T16:20:56.932Z,99241.63
2023-04-21T16:23:25.309Z,99249.38
2023-04-21T16:25:51.961Z,99246.38
2023-04-21T16:28:18.559Z,99247.13
2023-04-21T16:30:45.704Z,99247.66
2023-04-21T16:33:13.110Z,99250.22
2023-04-21T16:35:40.040Z,99238.56
2023-04-21T16:38:07.083Z,99239.44
2023-04-21T16:40:34.204Z,99242.16
2023-04-21T16:43:00.935Z,99243.06
2023-04-21T16:45:28.742Z,99242.13
2023-04-21T16:47:55.808Z,99230.41
2023-04-21T16:50:22.565Z,99232.81
2023-04-21T16:52:49.098Z,99226.13
2023-04-21T16:55:15.917Z,99233.50
2023-04-21T16:57:42.432Z,99234.84
2023-04-21T17:00:09.471Z,99228.00
2023-04-21T17:02:36.420Z,99227.69
2023-04-21T17:05:03.862Z,99229.91
2023-04-21T17:07:32.050Z,99235.59
2023-04-21T17:09:58.761Z,99225.59
2023-04-21T17:12:25.354Z,99220.75
2023-04-21T17:14:52.016Z,99229.50
2023-04-21T17:17:18.629Z,99215.78
2023-04-21T17:19:45.304Z,99220.16
2023-04-21T17:22:11.978Z,99216.47
2023-04-21T17:24:51.683Z,99220.69
2023-04-21T17:27:19.589Z,99214.38
2023-04-21T17:29:46.949Z,99213.38
2023-04-21T17:32:13.943Z,99209.53
2023-04-21T17:34:40.756Z,99206.56
2023-04-21T17:37:07.374Z,99203.56
2023-04-21T17:39:33.958Z,99199.72
2023-04-21T17:42:01.915Z,99204.06
2023-04-21T17:44:28.457Z,99191.56
2023-04-21T17:46:54.983Z,99197.75
2023-04-21T17:49:23.075Z,99192.41
2023-04-21T17:51:49.513Z,99193.03
2023-04-21T17:54:16.984Z,99189.41
2023-04-21T17:56:46.073Z,99181.22
2023-04-21T17:59:12.664Z,99173.00
2023-04-21T18:01:39.209Z,99178.38
2023-04-21T18:04:05.945Z,99173.19
2023-04-21T18:06:32.644Z,99176.31
2023-04-21T18:08:59.192Z,99173.00
2023-04-21T18:11:25.589Z,99175.00
2023-04-21T18:13:52.049Z,99171.59
2023-04-21T18:16:18.626Z,99178.06
2023-04-21T18:18:47.208Z,99174.53
2023-04-21T18:21:14.650Z,99180.88
2023-04-21T18:23:41.218Z,99174.31
2023-04-21T18:26:10.141Z,99176.81
2023-04-21T18:28:36.815Z,99186.94
2023-04-21T18:31:03.755Z,99180.44
2023-04-21T18:33:30.434Z,99184.44
2023-04-21T18:35:57.000Z,99177.72
2023-04-21T18:38:23.591Z,99184.38
2023-04-21T18:40:50.043Z,99182.88
2023-04-21T18:43:16.861Z,99182.34
2023-04-21T18:45:43.466Z,99181.66
2023-04-21T18:48:10.051Z,99176.63
2023-04-21T18:50:39.877Z,99179.63
2023-04-21T18:53:07.771Z,99180.78
2023-04-21T18:55:35.926Z,99181.13
2023-04-21T18:58:02.627Z,99180.41
2023-04-21T19:00:29.783Z,99178.91
2023-04-21T19:02:56.582Z,99185.25
2023-04-21T19:05:23.307Z,99185.53
2023-04-21T19:07:49.819Z,99187.81
2023-04-21T19:10:16.500Z,99178.16
2023-04-21T19:12:43.149Z,99190.63
2023-04-21T19:15:10.120Z,99196.13
2023-04-21T19:17:36.771Z,99192.78
2023-04-21T19:20:03.736Z,99192.94
2023-04-21T19:22:31.917Z,99197.59
2023-04-21T19:24:58.352Z,99189.72
2023-04-21T19:27:24.910Z,99187.25
2023-04-21T19:29:51.475Z,99175.88
2023-04-21T19:32:18.194Z,99185.88
2023-04-21T19:34:44.830Z,99190.38
2023-04-21T19:37:11.526Z,99183.38
2023-04-21T19:39:38.015Z,99184.38
2023-04-21T19:42:04.816Z,99191.53
2023-04-21T19:44:31.823Z,99189.84
2023-04-21T19:46:58.474Z,99192.66
2023-04-21T19:49:24.965Z,99200.66
2023-04-21T19:51:51.815Z,99207.66
2023-04-21T19:54:18.184Z,99225.34
2023-04-21T19:56:45.017Z,99233.34
2023-04-21T19:59:11.467Z,99235.84
2023-04-21T20:01:37.930Z,99228.56
2023-04-21T20:04:05.242Z,99231.03
2023-04-21T20:06:32.984Z,99232.59
2023-04-21T20:08:59.388Z,99246.75
2023-04-21T20:11:28.788Z,99254.75
2023-04-21T20:13:55.945Z,99242.25
2023-04-21T20:16:22.514Z,99219.06
2023-04-21T20:18:49.474Z,99217.56
2023-04-21T20:21:16.021Z,99207.22
2023-04-21T20:23:43.534Z,99205.00
2023-04-21T20:26:10.192Z,99197.94
2023-04-21T20:28:36.688Z,99187.06
2023-04-21T20:31:03.233Z,99192.31
2023-04-21T20:33:30.440Z,99201.25
2023-04-21T20:35:57.090Z,99191.31
2023-04-21T20:38:26.562Z,99184.94
2023-04-21T20:40:53.257Z,99179.53
2023-04-21T20:43:20.178Z,99175.78
2023-04-21T20:45:50.308Z,99176.00
2023-04-21T20:48:16.799Z,99173.53
2023-04-21T20:50:45.467Z,99159.47
2023-04-21T20:53:12.465Z,99169.31
2023-04-21T20:55:38.905Z,99170.22
2023-04-21T20:58:05.440Z,99179.09
2023-04-21T21:00:34.118Z,99181.50
2023-04-21T21:03:00.877Z,99191.75
2023-04-21T21:05:29.061Z,99193.84
2023-04-21T21:07:56.685Z,99197.34
2023-04-21T21:10:23.127Z,99198.03
2023-04-21T21:12:49.580Z,99200.53
2023-04-21T21:15:16.207Z,99192.28
2023-04-21T21:20:13.482Z,99210.03
2023-04-21T21:22:39.952Z,99191.97
2023-04-21T21:25:06.792Z,99190.66
2023-04-21T21:27:33.346Z,99178.91
2023-04-21T21:29:59.982Z,99171.59
2023-04-21T21:35:20.239Z,99169.63
2023-04-21T21:37:47.165Z,99168.06
2023-04-21T21:40:14.251Z,99175.53
2023-04-21T21:42:40.832Z,99180.31
2023-04-21T21:45:08.262Z,99186.78
2023-04-21T21:47:38.300Z,99184.53
2023-04-21T21:50:07.707Z,99229.78
2023-04-21T21:52:34.270Z,99280.47
2023-04-21T21:55:00.921Z,99287.94
2023-04-21T21:57:27.495Z,99275.91
2023-04-21T21:59:54.068Z,99298.72
2023-04-21T22:02:20.683Z,99283.75
2023-04-21T22:04:47.634Z,99274.56
2023-04-21T22:07:14.333Z,99279.84
2023-04-21T22:09:41.426Z,99281.53
2023-04-21T22:12:08.243Z,99274.81
2023-04-21T22:14:35.151Z,99291.84
2023-04-21T22:17:02.971Z,99303.16
2023-04-21T22:19:31.007Z,99273.94
2023-04-21T22:21:57.851Z,99269.31
2023-04-21T22:24:24.381Z,99262.03
2023-04-21T22:26:51.116Z,99245.09
2023-04-21T22:29:17.797Z,99251.94
2023-04-21T22:31:44.482Z,99230.50
2023-04-21T22:34:15.004Z,99206.31
2023-04-21T22:36:41.525Z,99198.88
2023-04-21T22:39:08.093Z,99199.44
2023-04-21T22:41:34.654Z,99183.22
2023-04-21T22:44:01.178Z,99187.22
2023-04-21T22:46:32.031Z,99188.47
2023-04-21T22:48:59.871Z,99173.66
2023-04-21T22:51:27.808Z,99172.13
2023-04-21T22:53:54.340Z,99166.94
2023-04-21T22:56:21.175Z,99155.63
2023-04-21T22:58:47.862Z,99153.94
2023-04-21T23:01:14.690Z,99150.44
2023-04-21T23:03:41.447Z,99151.56
2023-04-21T23:06:08.299Z,99151.44
2023-04-21T23:08:34.825Z,99153.94
2023-04-21T23:11:01.976Z,99165.28
2023-04-21T23:13:28.516Z,99167.78
2023-04-21T23:15:55.039Z,99183.44
2023-04-21T23:18:21.682Z,99178.00
2023-04-21T23:20:48.232Z,99187.50
2023-04-21T23:23:14.730Z,99189.88
2023-04-21T23:25:41.245Z,99183.34
2023-04-21T23:28:07.772Z,99192.84
2023-04-21T23:30:34.610Z,99202.22
2023-04-21T23:33:01.342Z,99205.56
2023-04-21T23:35:27.986Z,99206.28
2023-04-21T23:37:54.583Z,99200.00
2023-04-21T23:40:21.151Z,99183.94
2023-04-21T23:42:48.130Z,99186.34
2023-04-21T23:45:15.339Z,99191.47
2023-04-21T23:47:42.029Z,99181.59
2023-04-21T23:50:08.948Z,99187.75
2023-04-21T23:52:35.543Z,99184.94
2023-04-21T23:55:02.197Z,99191.94
2023-04-21T23:57:28.938Z,99178.50
2023-04-21T23:59:55.472Z,99174.91
